Wabush, Canada
Current Conditions -  °F | °C
As of 1:00 AM on Friday 31 Oct 2014 (Local Time) from CYWK Reporting Station
Scattered Clouds Scattered Clouds  
Wind Chill: 20°   Ceiling: Unl
Heat Index: 28°   Visibility: 9mi
Dew Point: 19°   Wind: 9mph
Humidity: 69%   Direction: 270°W
Pressure: 29.69"   Gusts: 17mph
Location:  52.9°N, 66.87°W
Report Text: CYWK 310400Z AUTO 27008G15KT 9SM FEW034 SCT043 M02/M07 A2969 RMK ICG SLP082
Loading
Personal Weather Stations






























Interactive Weather Map New forecast layout! Learn more

10-Day Weather Forecast

Advertisements
Track Severe Weather on mobile